Play — VQNI9 — position and weather

sailwx.info

Track history (hours):
 
Tides and Currents Weather Stations Pressure Air Temp Water Temp Dewpoint Dewpoint Depression Visibility Wind Speed Wind Dir Waves Ship Positions

Play

Last reported at 2018-May-22 14:14 UTC. Time now 2018-Jul-20 08:14 UTC.
Position N 14°19' W 060°55'.
Warning: this ship's position is 58 days out of date.

Length 13 m.

Type: Sailing vessel. MMSI: 232006550.

Date/timePositionNaut miles runAvg speedWind from/ knotsBaromVisibWave heightAir tempDewpointWater temp
2018-May-22 14:14N 14°19' W 060°55'2 6.7
2018-May-22 14:00N 14°20' W 060°55'3 6.7
2018-May-22 13:30N 14°24' W 060°54'3 5.1
2018-May-22 13:00N 14°26' W 060°53'  
2018-May-17 21:02N 14°26' W 060°53'0 0.1
2018-May-17 20:59N 14°26' W 060°53'0 0.8
2018-May-17 20:29N 14°26' W 060°53'2 3.5
2018-May-17 20:00N 14°24' W 060°54'2 4.8
2018-May-17 19:30N 14°22' W 060°56'2 3.6
2018-May-17 18:59N 14°20' W 060°56'  
Track history (hours):
 
Tides and Currents Weather Stations Pressure Air Temp Water Temp Dewpoint Dewpoint Depression Visibility Wind Speed Wind Dir Waves Ship Positions

Play

Last reported at 2018-May-22 14:14 UTC. Time now 2018-Jul-20 08:14 UTC.
Position N 14°19' W 060°55'.
Warning: this ship's position is 58 days out of date.

Length 13 m.

Type: Sailing vessel. MMSI: 232006550.

Date/timePositionNaut miles runAvg speedWind from/ knotsBaromVisibWave heightAir tempDewpointWater temp
2018-May-22 14:14N 14°19' W 060°55'2 6.7
2018-May-22 14:00N 14°20' W 060°55'3 6.7
2018-May-22 13:30N 14°24' W 060°54'3 5.1
2018-May-22 13:00N 14°26' W 060°53'  
2018-May-17 21:02N 14°26' W 060°53'0 0.1
2018-May-17 20:59N 14°26' W 060°53'0 0.8
2018-May-17 20:29N 14°26' W 060°53'2 3.5
2018-May-17 20:00N 14°24' W 060°54'2 4.8
2018-May-17 19:30N 14°22' W 060°56'2 3.6
2018-May-17 18:59N 14°20' W 060°56'  

Dump ship's entire track history